sensor_id;sensor_type;location;lat;lon;timestamp;P1;durP1;ratioP1;P2;durP2;ratioP2
15181;SDS011;7692;50.602;8.692;2023-11-19T00:02:01;1.60;;;1.60;;
15181;SDS011;7692;50.602;8.692;2023-11-19T00:04:30;1.30;;;1.30;;
15181;SDS011;7692;50.602;8.692;2023-11-19T00:06:58;1.60;;;1.60;;
15181;SDS011;7692;50.602;8.692;2023-11-19T00:09:30;1.60;;;1.60;;
15181;SDS011;7692;50.602;8.692;2023-11-19T00:11:59;1.40;;;1.40;;
15181;SDS011;7692;50.602;8.692;2023-11-19T00:14:28;1.43;;;1.43;;
15181;SDS011;7692;50.602;8.692;2023-11-19T00:16:58;1.40;;;1.40;;
15181;SDS011;7692;50.602;8.692;2023-11-19T00:19:26;1.37;;;1.37;;
15181;SDS011;7692;50.602;8.692;2023-11-19T00:21:54;1.40;;;1.40;;
15181;SDS011;7692;50.602;8.692;2023-11-19T00:24:22;1.60;;;1.60;;
15181;SDS011;7692;50.602;8.692;2023-11-19T00:26:50;1.50;;;1.50;;
15181;SDS011;7692;50.602;8.692;2023-11-19T00:29:18;1.50;;;1.50;;
15181;SDS011;7692;50.602;8.692;2023-11-19T00:31:47;1.30;;;1.30;;
15181;SDS011;7692;50.602;8.692;2023-11-19T00:34:17;1.80;;;1.80;;
15181;SDS011;7692;50.602;8.692;2023-11-19T00:36:49;1.50;;;1.50;;
15181;SDS011;7692;50.602;8.692;2023-11-19T00:39:17;1.37;;;1.37;;
15181;SDS011;7692;50.602;8.692;2023-11-19T00:41:47;1.40;;;1.40;;
15181;SDS011;7692;50.602;8.692;2023-11-19T00:44:15;1.40;;;1.40;;
15181;SDS011;7692;50.602;8.692;2023-11-19T00:46:44;1.50;;;1.50;;
15181;SDS011;7692;50.602;8.692;2023-11-19T00:49:12;1.70;;;1.70;;
15181;SDS011;7692;50.602;8.692;2023-11-19T00:51:43;1.30;;;1.30;;
15181;SDS011;7692;50.602;8.692;2023-11-19T00:54:12;1.70;;;1.70;;
15181;SDS011;7692;50.602;8.692;2023-11-19T00:56:40;1.40;;;1.40;;
15181;SDS011;7692;50.602;8.692;2023-11-19T00:59:08;1.57;;;1.57;;
15181;SDS011;7692;50.602;8.692;2023-11-19T01:01:36;1.40;;;1.40;;
15181;SDS011;7692;50.602;8.692;2023-11-19T01:04:05;1.40;;;1.40;;
15181;SDS011;7692;50.602;8.692;2023-11-19T01:06:33;1.50;;;1.50;;
15181;SDS011;7692;50.602;8.692;2023-11-19T01:09:03;1.30;;;1.30;;
15181;SDS011;7692;50.602;8.692;2023-11-19T01:11:31;1.30;;;1.30;;
15181;SDS011;7692;50.602;8.692;2023-11-19T01:13:59;1.30;;;1.30;;
15181;SDS011;7692;50.602;8.692;2023-11-19T01:16:27;1.60;;;1.60;;
15181;SDS011;7692;50.602;8.692;2023-11-19T01:18:56;1.30;;;1.30;;
15181;SDS011;7692;50.602;8.692;2023-11-19T01:21:42;1.70;;;1.70;;
15181;SDS011;7692;50.602;8.692;2023-11-19T01:24:12;1.50;;;1.50;;
15181;SDS011;7692;50.602;8.692;2023-11-19T01:26:40;1.30;;;1.30;;
15181;SDS011;7692;50.602;8.692;2023-11-19T01:29:12;1.30;;;1.30;;
15181;SDS011;7692;50.602;8.692;2023-11-19T01:31:41;1.40;;;1.40;;
15181;SDS011;7692;50.602;8.692;2023-11-19T01:34:10;1.70;;;1.70;;
15181;SDS011;7692;50.602;8.692;2023-11-19T01:36:39;1.80;;;1.80;;
15181;SDS011;7692;50.602;8.692;2023-11-19T01:39:07;1.40;;;1.40;;
15181;SDS011;7692;50.602;8.692;2023-11-19T01:41:37;1.30;;;1.30;;
15181;SDS011;7692;50.602;8.692;2023-11-19T01:44:05;1.30;;;1.30;;
15181;SDS011;7692;50.602;8.692;2023-11-19T01:46:34;1.50;;;1.50;;
15181;SDS011;7692;50.602;8.692;2023-11-19T01:49:04;1.40;;;1.40;;
15181;SDS011;7692;50.602;8.692;2023-11-19T01:51:33;1.40;;;1.40;;
15181;SDS011;7692;50.602;8.692;2023-11-19T01:54:01;1.30;;;1.30;;
15181;SDS011;7692;50.602;8.692;2023-11-19T01:56:29;1.40;;;1.40;;
15181;SDS011;7692;50.602;8.692;2023-11-19T01:59:04;1.40;;;1.40;;
15181;SDS011;7692;50.602;8.692;2023-11-19T02:01:35;1.40;;;1.40;;
15181;SDS011;7692;50.602;8.692;2023-11-19T02:04:06;1.50;;;1.50;;
15181;SDS011;7692;50.602;8.692;2023-11-19T02:06:36;1.60;;;1.60;;
15181;SDS011;7692;50.602;8.692;2023-11-19T02:09:08;1.20;;;1.20;;
15181;SDS011;7692;50.602;8.692;2023-11-19T02:11:38;1.20;;;1.20;;
15181;SDS011;7692;50.602;8.692;2023-11-19T02:14:09;1.50;;;1.50;;
15181;SDS011;7692;50.602;8.692;2023-11-19T02:16:37;1.20;;;1.20;;
15181;SDS011;7692;50.602;8.692;2023-11-19T02:19:05;1.37;;;1.37;;
15181;SDS011;7692;50.602;8.692;2023-11-19T02:21:34;1.40;;;1.40;;
15181;SDS011;7692;50.602;8.692;2023-11-19T02:24:03;1.50;;;1.50;;
15181;SDS011;7692;50.602;8.692;2023-11-19T02:26:38;1.40;;;1.40;;
15181;SDS011;7692;50.602;8.692;2023-11-19T02:29:12;1.30;;;1.30;;
15181;SDS011;7692;50.602;8.692;2023-11-19T02:31:40;1.40;;;1.40;;
15181;SDS011;7692;50.602;8.692;2023-11-19T02:34:09;1.40;;;1.40;;
15181;SDS011;7692;50.602;8.692;2023-11-19T02:36:39;1.40;;;1.40;;
15181;SDS011;7692;50.602;8.692;2023-11-19T02:39:08;1.50;;;1.50;;
15181;SDS011;7692;50.602;8.692;2023-11-19T02:41:38;1.70;;;1.70;;
15181;SDS011;7692;50.602;8.692;2023-11-19T02:44:07;1.40;;;1.40;;
15181;SDS011;7692;50.602;8.692;2023-11-19T02:46:36;1.20;;;1.20;;
15181;SDS011;7692;50.602;8.692;2023-11-19T02:49:05;1.30;;;1.30;;
15181;SDS011;7692;50.602;8.692;2023-11-19T02:51:33;1.40;;;1.40;;
15181;SDS011;7692;50.602;8.692;2023-11-19T02:54:02;1.20;;;1.20;;
15181;SDS011;7692;50.602;8.692;2023-11-19T02:56:31;1.40;;;1.40;;
15181;SDS011;7692;50.602;8.692;2023-11-19T02:59:03;1.30;;;1.30;;
15181;SDS011;7692;50.602;8.692;2023-11-19T03:01:42;1.40;;;1.40;;
15181;SDS011;7692;50.602;8.692;2023-11-19T03:04:16;1.80;;;1.80;;
15181;SDS011;7692;50.602;8.692;2023-11-19T03:06:47;1.50;;;1.50;;
15181;SDS011;7692;50.602;8.692;2023-11-19T03:09:15;1.23;;;1.23;;
15181;SDS011;7692;50.602;8.692;2023-11-19T03:11:43;1.20;;;1.20;;
15181;SDS011;7692;50.602;8.692;2023-11-19T03:14:11;1.50;;;1.50;;
15181;SDS011;7692;50.602;8.692;2023-11-19T03:16:39;1.60;;;1.60;;
15181;SDS011;7692;50.602;8.692;2023-11-19T03:19:08;1.20;;;1.20;;
15181;SDS011;7692;50.602;8.692;2023-11-19T03:21:37;1.20;;;1.20;;
15181;SDS011;7692;50.602;8.692;2023-11-19T03:24:05;1.40;;;1.40;;
15181;SDS011;7692;50.602;8.692;2023-11-19T03:26:34;1.40;;;1.40;;
15181;SDS011;7692;50.602;8.692;2023-11-19T03:29:03;1.30;;;1.30;;
15181;SDS011;7692;50.602;8.692;2023-11-19T03:31:31;1.40;;;1.40;;
15181;SDS011;7692;50.602;8.692;2023-11-19T03:33:59;1.20;;;1.20;;
15181;SDS011;7692;50.602;8.692;2023-11-19T03:36:32;1.40;;;1.40;;
15181;SDS011;7692;50.602;8.692;2023-11-19T03:39:01;1.40;;;1.40;;
15181;SDS011;7692;50.602;8.692;2023-11-19T03:41:29;1.40;;;1.40;;
15181;SDS011;7692;50.602;8.692;2023-11-19T03:44:07;1.37;;;1.37;;
15181;SDS011;7692;50.602;8.692;2023-11-19T03:46:35;1.20;;;1.20;;
15181;SDS011;7692;50.602;8.692;2023-11-19T03:49:04;1.10;;;1.10;;
15181;SDS011;7692;50.602;8.692;2023-11-19T03:51:35;1.20;;;1.20;;
15181;SDS011;7692;50.602;8.692;2023-11-19T03:54:03;1.40;;;1.40;;
15181;SDS011;7692;50.602;8.692;2023-11-19T03:56:32;1.30;;;1.30;;
15181;SDS011;7692;50.602;8.692;2023-11-19T03:59:00;1.30;;;1.30;;
15181;SDS011;7692;50.602;8.692;2023-11-19T04:01:28;1.10;;;1.10;;
15181;SDS011;7692;50.602;8.692;2023-11-19T04:03:56;1.23;;;1.23;;
15181;SDS011;7692;50.602;8.692;2023-11-19T04:06:25;1.30;;;1.30;;
15181;SDS011;7692;50.602;8.692;2023-11-19T04:08:55;1.20;;;1.20;;
15181;SDS011;7692;50.602;8.692;2023-11-19T04:11:23;1.30;;;1.30;;
15181;SDS011;7692;50.602;8.692;2023-11-19T04:13:56;1.30;;;1.30;;
15181;SDS011;7692;50.602;8.692;2023-11-19T04:16:27;1.20;;;1.20;;
15181;SDS011;7692;50.602;8.692;2023-11-19T04:18:57;1.30;;;1.30;;
15181;SDS011;7692;50.602;8.692;2023-11-19T04:21:25;1.50;;;1.50;;
15181;SDS011;7692;50.602;8.692;2023-11-19T04:23:55;1.20;;;1.20;;
15181;SDS011;7692;50.602;8.692;2023-11-19T04:26:23;1.30;;;1.30;;
15181;SDS011;7692;50.602;8.692;2023-11-19T04:28:51;1.13;;;1.13;;
15181;SDS011;7692;50.602;8.692;2023-11-19T04:31:19;1.30;;;1.30;;
15181;SDS011;7692;50.602;8.692;2023-11-19T04:33:47;1.27;;;1.27;;
15181;SDS011;7692;50.602;8.692;2023-11-19T04:36:18;1.37;;;1.37;;
15181;SDS011;7692;50.602;8.692;2023-11-19T04:38:47;1.20;;;1.20;;
15181;SDS011;7692;50.602;8.692;2023-11-19T04:41:16;1.20;;;1.20;;
15181;SDS011;7692;50.602;8.692;2023-11-19T04:43:44;1.20;;;1.20;;
15181;SDS011;7692;50.602;8.692;2023-11-19T04:46:12;1.20;;;1.20;;
15181;SDS011;7692;50.602;8.692;2023-11-19T04:48:40;1.20;;;1.20;;
15181;SDS011;7692;50.602;8.692;2023-11-19T04:51:08;1.10;;;1.10;;
15181;SDS011;7692;50.602;8.692;2023-11-19T04:53:36;1.17;;;1.17;;
15181;SDS011;7692;50.602;8.692;2023-11-19T04:56:08;1.30;;;1.30;;
15181;SDS011;7692;50.602;8.692;2023-11-19T04:58:38;1.20;;;1.20;;
15181;SDS011;7692;50.602;8.692;2023-11-19T05:01:13;1.13;;;1.13;;
15181;SDS011;7692;50.602;8.692;2023-11-19T05:03:43;1.20;;;1.20;;
15181;SDS011;7692;50.602;8.692;2023-11-19T05:06:11;1.20;;;1.20;;
15181;SDS011;7692;50.602;8.692;2023-11-19T05:08:39;1.20;;;1.20;;
15181;SDS011;7692;50.602;8.692;2023-11-19T05:11:07;1.20;;;1.20;;
15181;SDS011;7692;50.602;8.692;2023-11-19T05:13:39;1.13;;;1.13;;
15181;SDS011;7692;50.602;8.692;2023-11-19T05:16:08;1.43;;;1.43;;
15181;SDS011;7692;50.602;8.692;2023-11-19T05:18:36;1.20;;;1.20;;
15181;SDS011;7692;50.602;8.692;2023-11-19T05:21:09;1.13;;;1.13;;
15181;SDS011;7692;50.602;8.692;2023-11-19T05:23:37;1.20;;;1.20;;
15181;SDS011;7692;50.602;8.692;2023-11-19T05:26:05;1.20;;;1.20;;
15181;SDS011;7692;50.602;8.692;2023-11-19T05:28:34;1.10;;;1.10;;
15181;SDS011;7692;50.602;8.692;2023-11-19T05:31:03;1.20;;;1.20;;
15181;SDS011;7692;50.602;8.692;2023-11-19T05:33:32;1.20;;;1.20;;
15181;SDS011;7692;50.602;8.692;2023-11-19T05:36:00;1.00;;;1.00;;
15181;SDS011;7692;50.602;8.692;2023-11-19T05:38:29;1.10;;;1.10;;
15181;SDS011;7692;50.602;8.692;2023-11-19T05:40:57;1.20;;;1.20;;
15181;SDS011;7692;50.602;8.692;2023-11-19T05:43:25;1.00;;;1.00;;
15181;SDS011;7692;50.602;8.692;2023-11-19T05:45:54;1.10;;;1.10;;
15181;SDS011;7692;50.602;8.692;2023-11-19T05:48:24;1.30;;;1.30;;
15181;SDS011;7692;50.602;8.692;2023-11-19T05:50:53;1.10;;;1.10;;
15181;SDS011;7692;50.602;8.692;2023-11-19T05:53:21;1.10;;;1.10;;
15181;SDS011;7692;50.602;8.692;2023-11-19T05:55:49;1.07;;;1.07;;
15181;SDS011;7692;50.602;8.692;2023-11-19T05:58:23;1.20;;;1.20;;
15181;SDS011;7692;50.602;8.692;2023-11-19T06:00:54;1.20;;;1.20;;
15181;SDS011;7692;50.602;8.692;2023-11-19T06:03:24;1.10;;;1.10;;
15181;SDS011;7692;50.602;8.692;2023-11-19T06:05:52;1.20;;;1.20;;
15181;SDS011;7692;50.602;8.692;2023-11-19T06:08:21;1.20;;;1.20;;
15181;SDS011;7692;50.602;8.692;2023-11-19T06:10:49;1.20;;;1.20;;
15181;SDS011;7692;50.602;8.692;2023-11-19T06:13:18;1.20;;;1.20;;
15181;SDS011;7692;50.602;8.692;2023-11-19T06:15:50;1.00;;;1.00;;
15181;SDS011;7692;50.602;8.692;2023-11-19T06:18:18;1.20;;;1.20;;
15181;SDS011;7692;50.602;8.692;2023-11-19T06:20:52;1.00;;;1.00;;
15181;SDS011;7692;50.602;8.692;2023-11-19T06:23:20;1.10;;;1.10;;
15181;SDS011;7692;50.602;8.692;2023-11-19T06:25:48;1.00;;;1.00;;
15181;SDS011;7692;50.602;8.692;2023-11-19T06:28:16;1.20;;;1.20;;
15181;SDS011;7692;50.602;8.692;2023-11-19T06:30:44;1.20;;;1.20;;
15181;SDS011;7692;50.602;8.692;2023-11-19T06:33:15;1.20;;;1.20;;
15181;SDS011;7692;50.602;8.692;2023-11-19T06:35:43;1.00;;;1.00;;
15181;SDS011;7692;50.602;8.692;2023-11-19T06:38:12;1.20;;;1.20;;
15181;SDS011;7692;50.602;8.692;2023-11-19T06:40:40;1.10;;;1.10;;
15181;SDS011;7692;50.602;8.692;2023-11-19T06:43:09;1.10;;;1.10;;
15181;SDS011;7692;50.602;8.692;2023-11-19T06:45:37;1.10;;;1.10;;
15181;SDS011;7692;50.602;8.692;2023-11-19T06:48:05;1.10;;;1.10;;
15181;SDS011;7692;50.602;8.692;2023-11-19T06:50:33;1.20;;;1.20;;
15181;SDS011;7692;50.602;8.692;2023-11-19T06:53:01;1.20;;;1.20;;
15181;SDS011;7692;50.602;8.692;2023-11-19T06:55:32;1.20;;;1.20;;
15181;SDS011;7692;50.602;8.692;2023-11-19T06:58:00;1.20;;;1.20;;
15181;SDS011;7692;50.602;8.692;2023-11-19T07:00:29;1.40;;;1.40;;
15181;SDS011;7692;50.602;8.692;2023-11-19T07:02:58;1.10;;;1.10;;
15181;SDS011;7692;50.602;8.692;2023-11-19T07:05:27;1.20;;;1.20;;
15181;SDS011;7692;50.602;8.692;2023-11-19T07:07:56;1.00;;;1.00;;
15181;SDS011;7692;50.602;8.692;2023-11-19T07:10:24;1.10;;;1.10;;
15181;SDS011;7692;50.602;8.692;2023-11-19T07:12:54;1.20;;;1.20;;
15181;SDS011;7692;50.602;8.692;2023-11-19T07:15:22;1.10;;;1.10;;
15181;SDS011;7692;50.602;8.692;2023-11-19T07:17:50;1.10;;;1.10;;
15181;SDS011;7692;50.602;8.692;2023-11-19T07:20:23;1.10;;;1.10;;
15181;SDS011;7692;50.602;8.692;2023-11-19T07:22:53;1.10;;;1.10;;
15181;SDS011;7692;50.602;8.692;2023-11-19T07:25:24;1.10;;;1.10;;
15181;SDS011;7692;50.602;8.692;2023-11-19T07:27:54;1.10;;;1.10;;
15181;SDS011;7692;50.602;8.692;2023-11-19T07:30:22;1.00;;;1.00;;
15181;SDS011;7692;50.602;8.692;2023-11-19T07:32:52;1.13;;;1.13;;
15181;SDS011;7692;50.602;8.692;2023-11-19T07:35:23;1.10;;;1.10;;
15181;SDS011;7692;50.602;8.692;2023-11-19T07:37:57;1.10;;;1.10;;
15181;SDS011;7692;50.602;8.692;2023-11-19T07:40:25;1.17;;;1.17;;
15181;SDS011;7692;50.602;8.692;2023-11-19T07:42:55;0.90;;;0.90;;
15181;SDS011;7692;50.602;8.692;2023-11-19T07:45:23;1.10;;;1.10;;
15181;SDS011;7692;50.602;8.692;2023-11-19T07:47:52;1.10;;;1.10;;
15181;SDS011;7692;50.602;8.692;2023-11-19T07:50:21;1.10;;;1.10;;
15181;SDS011;7692;50.602;8.692;2023-11-19T07:52:49;1.07;;;1.07;;
15181;SDS011;7692;50.602;8.692;2023-11-19T07:55:17;1.00;;;1.00;;
15181;SDS011;7692;50.602;8.692;2023-11-19T07:57:47;1.10;;;1.10;;
15181;SDS011;7692;50.602;8.692;2023-11-19T08:00:17;1.00;;;1.00;;
15181;SDS011;7692;50.602;8.692;2023-11-19T08:02:46;1.10;;;1.10;;
15181;SDS011;7692;50.602;8.692;2023-11-19T08:05:15;1.00;;;1.00;;
15181;SDS011;7692;50.602;8.692;2023-11-19T08:07:44;1.10;;;1.10;;
15181;SDS011;7692;50.602;8.692;2023-11-19T08:10:12;1.00;;;1.00;;
15181;SDS011;7692;50.602;8.692;2023-11-19T08:12:44;1.00;;;1.00;;
15181;SDS011;7692;50.602;8.692;2023-11-19T08:15:12;1.10;;;1.10;;
15181;SDS011;7692;50.602;8.692;2023-11-19T08:17:41;1.00;;;1.00;;
15181;SDS011;7692;50.602;8.692;2023-11-19T08:20:10;1.10;;;1.10;;
15181;SDS011;7692;50.602;8.692;2023-11-19T08:22:39;1.00;;;1.00;;
15181;SDS011;7692;50.602;8.692;2023-11-19T08:25:07;1.00;;;1.00;;
15181;SDS011;7692;50.602;8.692;2023-11-19T08:27:36;1.00;;;1.00;;
15181;SDS011;7692;50.602;8.692;2023-11-19T08:30:04;1.00;;;1.00;;
15181;SDS011;7692;50.602;8.692;2023-11-19T08:32:33;1.00;;;1.00;;
15181;SDS011;7692;50.602;8.692;2023-11-19T08:35:04;1.00;;;1.00;;
15181;SDS011;7692;50.602;8.692;2023-11-19T08:37:35;1.00;;;1.00;;
15181;SDS011;7692;50.602;8.692;2023-11-19T08:40:05;0.80;;;0.80;;
15181;SDS011;7692;50.602;8.692;2023-11-19T08:42:34;1.00;;;1.00;;
15181;SDS011;7692;50.602;8.692;2023-11-19T08:45:03;1.00;;;1.00;;
15181;SDS011;7692;50.602;8.692;2023-11-19T08:47:32;0.90;;;0.90;;
15181;SDS011;7692;50.602;8.692;2023-11-19T08:50:00;1.00;;;1.00;;
15181;SDS011;7692;50.602;8.692;2023-11-19T08:52:31;1.00;;;1.00;;
15181;SDS011;7692;50.602;8.692;2023-11-19T08:55:01;0.90;;;0.90;;
15181;SDS011;7692;50.602;8.692;2023-11-19T08:57:31;1.00;;;1.00;;
15181;SDS011;7692;50.602;8.692;2023-11-19T09:00:00;1.00;;;1.00;;
15181;SDS011;7692;50.602;8.692;2023-11-19T09:02:29;0.90;;;0.90;;
15181;SDS011;7692;50.602;8.692;2023-11-19T09:04:59;0.90;;;0.90;;
15181;SDS011;7692;50.602;8.692;2023-11-19T09:07:27;0.90;;;0.90;;
15181;SDS011;7692;50.602;8.692;2023-11-19T09:09:59;0.90;;;0.90;;
15181;SDS011;7692;50.602;8.692;2023-11-19T09:12:28;0.90;;;0.90;;
15181;SDS011;7692;50.602;8.692;2023-11-19T09:14:56;0.90;;;0.90;;
15181;SDS011;7692;50.602;8.692;2023-11-19T09:17:24;0.80;;;0.80;;
15181;SDS011;7692;50.602;8.692;2023-11-19T09:19:54;0.70;;;0.70;;
15181;SDS011;7692;50.602;8.692;2023-11-19T09:22:23;0.80;;;0.80;;
15181;SDS011;7692;50.602;8.692;2023-11-19T09:24:56;0.70;;;0.70;;
15181;SDS011;7692;50.602;8.692;2023-11-19T09:27:28;0.90;;;0.90;;
15181;SDS011;7692;50.602;8.692;2023-11-19T09:29:56;0.70;;;0.70;;
15181;SDS011;7692;50.602;8.692;2023-11-19T09:32:25;0.70;;;0.70;;
15181;SDS011;7692;50.602;8.692;2023-11-19T09:34:53;0.70;;;0.70;;
15181;SDS011;7692;50.602;8.692;2023-11-19T09:37:23;0.70;;;0.70;;
15181;SDS011;7692;50.602;8.692;2023-11-19T09:39:51;0.70;;;0.70;;
15181;SDS011;7692;50.602;8.692;2023-11-19T09:42:20;0.60;;;0.60;;
15181;SDS011;7692;50.602;8.692;2023-11-19T09:44:49;0.70;;;0.70;;
15181;SDS011;7692;50.602;8.692;2023-11-19T09:47:19;0.80;;;0.80;;
15181;SDS011;7692;50.602;8.692;2023-11-19T09:49:48;0.70;;;0.70;;
15181;SDS011;7692;50.602;8.692;2023-11-19T09:52:17;0.70;;;0.70;;
15181;SDS011;7692;50.602;8.692;2023-11-19T09:54:45;0.80;;;0.80;;
15181;SDS011;7692;50.602;8.692;2023-11-19T09:57:13;0.80;;;0.80;;
15181;SDS011;7692;50.602;8.692;2023-11-19T09:59:44;0.70;;;0.70;;
15181;SDS011;7692;50.602;8.692;2023-11-19T10:02:15;0.80;;;0.80;;
15181;SDS011;7692;50.602;8.692;2023-11-19T10:04:44;0.70;;;0.70;;
15181;SDS011;7692;50.602;8.692;2023-11-19T10:07:14;0.80;;;0.80;;
15181;SDS011;7692;50.602;8.692;2023-11-19T10:09:42;0.80;;;0.80;;
15181;SDS011;7692;50.602;8.692;2023-11-19T10:12:10;0.70;;;0.70;;
15181;SDS011;7692;50.602;8.692;2023-11-19T10:14:38;0.70;;;0.70;;
15181;SDS011;7692;50.602;8.692;2023-11-19T10:17:09;0.50;;;0.50;;
15181;SDS011;7692;50.602;8.692;2023-11-19T10:19:39;0.70;;;0.70;;
15181;SDS011;7692;50.602;8.692;2023-11-19T10:22:10;0.70;;;0.70;;
15181;SDS011;7692;50.602;8.692;2023-11-19T10:24:43;0.70;;;0.70;;
15181;SDS011;7692;50.602;8.692;2023-11-19T10:27:19;0.60;;;0.60;;
15181;SDS011;7692;50.602;8.692;2023-11-19T10:29:48;0.60;;;0.60;;
15181;SDS011;7692;50.602;8.692;2023-11-19T10:32:19;0.60;;;0.60;;
15181;SDS011;7692;50.602;8.692;2023-11-19T10:35:03;0.65;;;0.65;;
15181;SDS011;7692;50.602;8.692;2023-11-19T10:37:47;0.80;;;0.80;;
15181;SDS011;7692;50.602;8.692;2023-11-19T10:40:17;0.70;;;0.70;;
15181;SDS011;7692;50.602;8.692;2023-11-19T10:42:45;0.75;;;0.75;;
15181;SDS011;7692;50.602;8.692;2023-11-19T10:45:23;0.60;;;0.60;;
15181;SDS011;7692;50.602;8.692;2023-11-19T10:47:54;0.70;;;0.70;;
15181;SDS011;7692;50.602;8.692;2023-11-19T10:50:28;0.70;;;0.70;;
15181;SDS011;7692;50.602;8.692;2023-11-19T10:52:57;0.70;;;0.70;;
15181;SDS011;7692;50.602;8.692;2023-11-19T10:55:26;0.60;;;0.60;;
15181;SDS011;7692;50.602;8.692;2023-11-19T10:57:58;0.70;;;0.70;;
15181;SDS011;7692;50.602;8.692;2023-11-19T11:00:30;0.70;;;0.70;;
15181;SDS011;7692;50.602;8.692;2023-11-19T11:03:02;0.70;;;0.70;;
15181;SDS011;7692;50.602;8.692;2023-11-19T11:05:43;0.70;;;0.70;;
15181;SDS011;7692;50.602;8.692;2023-11-19T11:08:15;0.70;;;0.70;;
15181;SDS011;7692;50.602;8.692;2023-11-19T11:10:48;0.70;;;0.70;;
15181;SDS011;7692;50.602;8.692;2023-11-19T11:13:24;0.60;;;0.60;;
15181;SDS011;7692;50.602;8.692;2023-11-19T11:15:54;0.70;;;0.70;;
15181;SDS011;7692;50.602;8.692;2023-11-19T11:18:25;0.60;;;0.60;;
15181;SDS011;7692;50.602;8.692;2023-11-19T11:20:56;0.60;;;0.60;;
15181;SDS011;7692;50.602;8.692;2023-11-19T11:26:29;0.80;;;0.80;;
15181;SDS011;7692;50.602;8.692;2023-11-19T11:29:09;0.63;;;0.63;;
15181;SDS011;7692;50.602;8.692;2023-11-19T11:31:44;0.70;;;0.70;;
15181;SDS011;7692;50.602;8.692;2023-11-19T11:37:32;0.70;;;0.70;;
15181;SDS011;7692;50.602;8.692;2023-11-19T11:40:00;0.60;;;0.60;;
15181;SDS011;7692;50.602;8.692;2023-11-19T11:42:37;0.60;;;0.60;;
15181;SDS011;7692;50.602;8.692;2023-11-19T11:45:05;0.60;;;0.60;;
15181;SDS011;7692;50.602;8.692;2023-11-19T11:50:24;0.60;;;0.60;;
15181;SDS011;7692;50.602;8.692;2023-11-19T11:55:52;0.60;;;0.60;;
15181;SDS011;7692;50.602;8.692;2023-11-19T11:58:22;0.60;;;0.60;;
15181;SDS011;7692;50.602;8.692;2023-11-19T12:00:53;0.63;;;0.63;;
15181;SDS011;7692;50.602;8.692;2023-11-19T12:03:21;0.70;;;0.70;;
15181;SDS011;7692;50.602;8.692;2023-11-19T12:05:50;0.60;;;0.60;;
15181;SDS011;7692;50.602;8.692;2023-11-19T12:08:18;0.70;;;0.70;;
15181;SDS011;7692;50.602;8.692;2023-11-19T12:10:53;0.70;;;0.70;;
15181;SDS011;7692;50.602;8.692;2023-11-19T12:13:24;0.60;;;0.60;;
15181;SDS011;7692;50.602;8.692;2023-11-19T12:16:10;0.60;;;0.60;;
15181;SDS011;7692;50.602;8.692;2023-11-19T12:18:39;0.60;;;0.60;;
15181;SDS011;7692;50.602;8.692;2023-11-19T12:21:08;0.70;;;0.70;;
15181;SDS011;7692;50.602;8.692;2023-11-19T12:23:43;0.60;;;0.60;;
15181;SDS011;7692;50.602;8.692;2023-11-19T12:29:03;0.70;;;0.70;;
15181;SDS011;7692;50.602;8.692;2023-11-19T12:31:34;0.60;;;0.60;;
15181;SDS011;7692;50.602;8.692;2023-11-19T12:34:07;0.60;;;0.60;;
15181;SDS011;7692;50.602;8.692;2023-11-19T12:36:39;0.70;;;0.70;;
15181;SDS011;7692;50.602;8.692;2023-11-19T12:39:11;0.60;;;0.60;;
15181;SDS011;7692;50.602;8.692;2023-11-19T12:41:50;0.65;;;0.65;;
15181;SDS011;7692;50.602;8.692;2023-11-19T12:44:22;0.60;;;0.60;;
15181;SDS011;7692;50.602;8.692;2023-11-19T12:47:00;0.60;;;0.60;;
15181;SDS011;7692;50.602;8.692;2023-11-19T12:49:33;0.60;;;0.60;;
15181;SDS011;7692;50.602;8.692;2023-11-19T12:52:01;0.60;;;0.60;;
15181;SDS011;7692;50.602;8.692;2023-11-19T12:54:38;0.60;;;0.60;;
15181;SDS011;7692;50.602;8.692;2023-11-19T12:57:08;0.60;;;0.60;;
15181;SDS011;7692;50.602;8.692;2023-11-19T12:59:36;0.60;;;0.60;;
15181;SDS011;7692;50.602;8.692;2023-11-19T13:02:05;0.60;;;0.60;;
15181;SDS011;7692;50.602;8.692;2023-11-19T13:04:34;0.60;;;0.60;;
15181;SDS011;7692;50.602;8.692;2023-11-19T13:07:02;0.70;;;0.70;;
15181;SDS011;7692;50.602;8.692;2023-11-19T13:09:32;0.65;;;0.65;;
15181;SDS011;7692;50.602;8.692;2023-11-19T13:12:11;0.70;;;0.70;;
15181;SDS011;7692;50.602;8.692;2023-11-19T13:14:42;0.80;;;0.80;;
15181;SDS011;7692;50.602;8.692;2023-11-19T13:17:12;0.70;;;0.70;;
15181;SDS011;7692;50.602;8.692;2023-11-19T13:19:41;0.70;;;0.70;;
15181;SDS011;7692;50.602;8.692;2023-11-19T13:22:09;0.75;;;0.75;;
15181;SDS011;7692;50.602;8.692;2023-11-19T13:24:37;0.80;;;0.80;;
15181;SDS011;7692;50.602;8.692;2023-11-19T13:27:07;0.80;;;0.80;;
15181;SDS011;7692;50.602;8.692;2023-11-19T13:29:36;0.80;;;0.80;;
15181;SDS011;7692;50.602;8.692;2023-11-19T13:32:04;0.80;;;0.80;;
15181;SDS011;7692;50.602;8.692;2023-11-19T13:34:33;0.80;;;0.80;;
15181;SDS011;7692;50.602;8.692;2023-11-19T13:37:01;0.80;;;0.80;;
15181;SDS011;7692;50.602;8.692;2023-11-19T13:39:30;0.80;;;0.80;;
15181;SDS011;7692;50.602;8.692;2023-11-19T13:41:59;0.80;;;0.80;;
15181;SDS011;7692;50.602;8.692;2023-11-19T13:44:30;0.80;;;0.80;;
15181;SDS011;7692;50.602;8.692;2023-11-19T13:46:59;0.80;;;0.80;;
15181;SDS011;7692;50.602;8.692;2023-11-19T13:49:29;0.80;;;0.80;;
15181;SDS011;7692;50.602;8.692;2023-11-19T13:51:57;0.90;;;0.90;;
15181;SDS011;7692;50.602;8.692;2023-11-19T13:54:25;0.80;;;0.80;;
15181;SDS011;7692;50.602;8.692;2023-11-19T13:56:54;0.80;;;0.80;;
15181;SDS011;7692;50.602;8.692;2023-11-19T13:59:24;0.80;;;0.80;;
15181;SDS011;7692;50.602;8.692;2023-11-19T14:01:53;0.90;;;0.90;;
15181;SDS011;7692;50.602;8.692;2023-11-19T14:04:25;0.87;;;0.87;;
15181;SDS011;7692;50.602;8.692;2023-11-19T14:06:53;0.80;;;0.80;;
15181;SDS011;7692;50.602;8.692;2023-11-19T14:09:22;0.80;;;0.80;;
15181;SDS011;7692;50.602;8.692;2023-11-19T14:11:50;0.90;;;0.90;;
15181;SDS011;7692;50.602;8.692;2023-11-19T14:14:18;0.90;;;0.90;;
15181;SDS011;7692;50.602;8.692;2023-11-19T14:16:47;0.97;;;0.97;;
15181;SDS011;7692;50.602;8.692;2023-11-19T14:19:15;0.90;;;0.90;;
15181;SDS011;7692;50.602;8.692;2023-11-19T14:21:45;1.00;;;1.00;;
15181;SDS011;7692;50.602;8.692;2023-11-19T14:24:14;1.00;;;1.00;;
15181;SDS011;7692;50.602;8.692;2023-11-19T14:26:45;1.07;;;1.07;;
15181;SDS011;7692;50.602;8.692;2023-11-19T14:29:13;0.90;;;0.90;;
15181;SDS011;7692;50.602;8.692;2023-11-19T14:31:42;1.00;;;1.00;;
15181;SDS011;7692;50.602;8.692;2023-11-19T14:34:10;1.00;;;1.00;;
15181;SDS011;7692;50.602;8.692;2023-11-19T14:36:39;1.00;;;1.00;;
15181;SDS011;7692;50.602;8.692;2023-11-19T14:39:09;1.07;;;1.07;;
15181;SDS011;7692;50.602;8.692;2023-11-19T14:41:37;1.00;;;1.00;;
15181;SDS011;7692;50.602;8.692;2023-11-19T14:44:06;1.00;;;1.00;;
15181;SDS011;7692;50.602;8.692;2023-11-19T14:46:36;1.00;;;1.00;;
15181;SDS011;7692;50.602;8.692;2023-11-19T14:49:04;1.10;;;1.10;;
15181;SDS011;7692;50.602;8.692;2023-11-19T14:51:35;1.00;;;1.00;;
15181;SDS011;7692;50.602;8.692;2023-11-19T14:54:04;1.07;;;1.07;;
15181;SDS011;7692;50.602;8.692;2023-11-19T14:56:34;1.00;;;1.00;;
15181;SDS011;7692;50.602;8.692;2023-11-19T14:59:02;1.00;;;1.00;;
15181;SDS011;7692;50.602;8.692;2023-11-19T15:01:30;1.10;;;1.10;;
15181;SDS011;7692;50.602;8.692;2023-11-19T15:03:58;1.00;;;1.00;;
15181;SDS011;7692;50.602;8.692;2023-11-19T15:06:31;0.97;;;0.97;;
15181;SDS011;7692;50.602;8.692;2023-11-19T15:09:00;1.00;;;1.00;;
15181;SDS011;7692;50.602;8.692;2023-11-19T15:11:35;1.00;;;1.00;;
15181;SDS011;7692;50.602;8.692;2023-11-19T15:14:03;1.00;;;1.00;;
15181;SDS011;7692;50.602;8.692;2023-11-19T15:16:33;1.00;;;1.00;;
15181;SDS011;7692;50.602;8.692;2023-11-19T15:19:01;1.00;;;1.00;;
15181;SDS011;7692;50.602;8.692;2023-11-19T15:21:30;0.87;;;0.87;;
15181;SDS011;7692;50.602;8.692;2023-11-19T15:23:59;1.03;;;1.03;;
15181;SDS011;7692;50.602;8.692;2023-11-19T15:26:27;1.10;;;1.10;;
15181;SDS011;7692;50.602;8.692;2023-11-19T15:28:56;1.00;;;1.00;;
15181;SDS011;7692;50.602;8.692;2023-11-19T15:31:25;1.00;;;1.00;;